Time;durP1;ratioP1;P1;durP2;ratioP2;P2;SDS_P1;SDS_P2;PMS_P1;PMS_P2;Temp;Humidity;BMP_temperature;BMP_pressure;BME280_temperature;BME280_humidity;BME280_pressure;Samples;Min_cycle;Max_cycle;Signal;HPM_P1;HPM_P2
2023/03/12 00:01:33;;;;;;;6.95;1.63;;;;;;;0.28;97.55;100324.53;5111091;29;20397;-72
2023/03/12 00:04:03;;;;;;;3.95;1.20;;;;;;;0.20;96.58;100337.34;5117893;29;20069;-73
2023/03/12 00:06:34;;;;;;;5.70;1.20;;;;;;;0.15;97.13;100331.34;5116816;29;20032;-73
2023/03/12 00:09:04;;;;;;;4.20;1.40;;;;;;;0.10;97.03;100332.19;5112593;29;20371;-73
2023/03/12 00:11:34;;;;;;;5.03;1.50;;;;;;;0.08;96.81;100337.31;5113069;29;20038;-73
2023/03/12 00:14:05;;;;;;;5.82;1.27;;;;;;;0.02;96.49;100336.47;5118241;29;20557;-72
2023/03/12 00:16:35;;;;;;;6.60;1.45;;;;;;;0.00;96.02;100338.19;5112245;29;20180;-72
2023/03/12 00:19:05;;;;;;;5.00;1.83;;;;;;;-0.04;96.40;100333.88;5108872;29;20102;-72
2023/03/12 00:21:35;;;;;;;13.77;3.15;;;;;;;-0.11;98.28;100334.72;5091464;29;20039;-72
2023/03/12 00:24:07;;;;;;;7.70;2.15;;;;;;;-0.13;98.95;100333.88;5100143;29;20030;-72
2023/03/12 00:26:37;;;;;;;19.45;4.07;;;;;;;-0.17;99.41;100338.97;5099635;29;20039;-73
2023/03/12 00:29:07;;;;;;;13.93;3.25;;;;;;;-0.16;99.47;100340.69;5101821;29;20046;-73
2023/03/12 00:31:37;;;;;;;14.93;3.10;;;;;;;-0.19;98.26;100338.13;5074265;29;20118;-72
2023/03/12 00:34:08;;;;;;;8.52;2.50;;;;;;;-0.17;99.49;100341.53;5109278;29;20077;-73
2023/03/12 00:36:40;;;;;;;12.20;2.47;;;;;;;-0.19;99.07;100340.69;5102484;29;20506;-73
2023/03/12 00:39:10;;;;;;;13.48;3.42;;;;;;;-0.19;100.00;100340.69;5099804;29;20024;-73
2023/03/12 00:41:40;;;;;;;11.90;2.60;;;;;;;-0.18;100.00;100345.81;5114305;29;20050;-73
2023/03/12 00:44:10;;;;;;;8.52;2.13;;;;;;;-0.20;100.00;100344.94;5099733;29;20035;-73
2023/03/12 00:46:41;;;;;;;12.40;2.25;;;;;;;-0.25;100.00;100345.81;5100129;29;20463;-72
2023/03/12 00:49:11;;;;;;;17.23;2.60;;;;;;;-0.25;100.00;100343.25;5098567;29;20113;-72
2023/03/12 00:51:41;;;;;;;13.98;3.33;;;;;;;-0.22;99.55;100340.69;5099628;29;20039;-73
2023/03/12 00:54:12;;;;;;;14.00;2.58;;;;;;;-0.25;98.78;100330.41;5099930;29;20130;-73
2023/03/12 00:56:42;;;;;;;13.32;2.72;;;;;;;-0.23;98.87;100338.97;5100840;29;20519;-72
2023/03/12 00:59:14;;;;;;;7.90;2.13;;;;;;;-0.25;98.72;100344.06;5100801;29;20039;-72
2023/03/12 01:01:44;;;;;;;5.63;1.88;;;;;;;-0.15;98.84;100329.56;5108704;29;20359;-72
2023/03/12 01:04:16;;;;;;;3.63;1.40;;;;;;;-0.22;98.67;100327.84;5108781;29;20389;-72
2023/03/12 01:06:46;;;;;;;3.50;1.27;;;;;;;-0.17;98.90;100333.84;5101458;29;21182;-72
2023/03/12 01:09:18;;;;;;;2.97;0.95;;;;;;;-0.18;97.59;100327.00;5105286;29;20134;-72
2023/03/12 01:11:48;;;;;;;2.47;0.90;;;;;;;-0.18;96.93;100329.56;5103580;29;20032;-72
2023/03/12 01:14:18;;;;;;;4.25;1.25;;;;;;;-0.30;98.76;100325.25;5103675;29;20035;-72
2023/03/12 01:16:49;;;;;;;5.13;1.02;;;;;;;-0.38;98.97;100328.63;5103387;29;20377;-72
2023/03/12 01:19:20;;;;;;;2.50;0.90;;;;;;;-0.42;99.70;100332.03;5126798;23;20067;-72
2023/03/12 01:21:50;;;;;;;6.13;0.90;;;;;;;-0.42;99.32;100326.91;5114797;28;20231;-73
2023/03/12 01:24:21;;;;;;;2.28;0.88;;;;;;;-0.32;99.51;100328.66;5119217;28;20474;-73
2023/03/12 01:26:51;;;;;;;3.97;1.20;;;;;;;-0.39;99.44;100326.91;5123852;28;20027;-73
2023/03/12 01:29:21;;;;;;;5.38;1.27;;;;;;;-0.52;100.00;100331.13;5108545;28;20122;-72
2023/03/12 01:31:52;;;;;;;3.08;1.08;;;;;;;-0.39;100.00;100322.63;5124462;28;20019;-71
2023/03/12 01:34:22;;;;;;;2.13;1.08;;;;;;;-0.48;99.86;100322.59;5129109;28;20035;-71
2023/03/12 01:36:54;;;;;;;4.50;1.17;;;;;;;-0.55;100.00;100325.13;5132743;28;20271;-73
2023/03/12 01:39:24;;;;;;;2.78;1.13;;;;;;;-0.56;100.00;100319.13;5118050;28;20401;-74
2023/03/12 01:41:55;;;;;;;2.05;0.90;;;;;;;-0.46;100.00;100320.91;5107923;29;20034;-73
2023/03/12 01:44:25;;;;;;;2.78;1.02;;;;;;;-0.46;100.00;100325.16;5118259;28;20033;-72
2023/03/12 01:46:55;;;;;;;2.80;0.95;;;;;;;-0.53;100.00;100328.56;5118244;29;20031;-72
2023/03/12 01:49:32;;;;;;;6.60;1.20;;;;;;;-0.46;99.17;100322.59;5107765;29;20034;-73
2023/03/12 01:52:15;;;;;;;3.95;1.13;;;;;;;-0.38;99.56;100329.47;5114212;29;20480;-73
2023/03/12 01:55:08;;;;;;;7.10;1.08;;;;;;;-0.48;99.27;100329.44;5105569;29;20031;-74
2023/03/12 01:57:46;;;;;;;4.65;1.23;;;;;;;-0.50;100.00;100326.88;5102697;28;20264;-73
2023/03/12 02:00:23;;;;;;;3.67;0.98;;;;;;;-0.50;100.00;100328.56;5114454;28;20035;-74
2023/03/12 02:02:58;;;;;;;7.63;1.20;;;;;;;-0.53;99.80;100320.88;5124289;28;20031;-74
2023/03/12 02:05:42;;;;;;;3.80;1.02;;;;;;;-0.52;100.00;100317.44;5116338;28;20086;-75
2023/03/12 02:08:16;;;;;;;3.53;1.42;;;;;;;-0.54;100.00;100317.44;5123642;28;20034;-74
2023/03/12 02:10:46;;;;;;;5.43;1.08;;;;;;;-0.47;100.00;100320.88;5112462;29;20042;-73
2023/03/12 02:13:17;;;;;;;2.65;1.40;;;;;;;-0.42;99.13;100321.78;5127005;28;20019;-73
2023/03/12 02:15:47;;;;;;;5.05;1.15;;;;;;;-0.46;98.68;100326.03;5121042;28;20038;-73
2023/03/12 02:18:20;;;;;;;2.92;1.20;;;;;;;-0.41;99.47;100318.38;5121179;29;20034;-73
2023/03/12 02:21:19;;;;;;;3.33;1.05;;;;;;;-0.53;100.00;100318.31;5120311;28;20390;-72
2023/03/12 02:24:13;;;;;;;3.60;1.00;;;;;;;-0.57;100.00;100324.28;5109275;29;20461;-78
2023/03/12 02:26:43;;;;;;;4.88;1.50;;;;;;;-0.61;100.00;100323.41;5121116;29;20027;-75
2023/03/12 02:29:15;;;;;;;5.35;1.13;;;;;;;-0.60;100.00;100330.25;5136673;28;20029;-74
2023/03/12 02:31:53;;;;;;;4.72;1.35;;;;;;;-0.59;100.00;100331.13;5134465;28;20363;-73
2023/03/12 02:34:23;;;;;;;5.22;1.70;;;;;;;-0.58;100.00;100325.97;5121430;28;20023;-72
2023/03/12 02:36:53;;;;;;;5.57;1.40;;;;;;;-0.61;100.00;100319.97;5121899;28;20086;-73
2023/03/12 02:39:24;;;;;;;6.65;1.40;;;;;;;-0.66;100.00;100322.53;5121385;28;20023;-72
2023/03/12 02:41:56;;;;;;;4.80;1.85;;;;;;;-0.37;100.00;100325.22;5120970;29;20031;-74
2023/03/12 02:44:30;;;;;;;5.40;1.73;;;;;;;-0.49;98.41;100327.72;5116702;29;20121;-73
2023/03/12 02:47:01;;;;;;;4.65;1.45;;;;;;;-0.50;97.55;100329.44;5121174;28;20030;-72
2023/03/12 02:49:33;;;;;;;3.78;1.48;;;;;;;-0.67;99.50;100325.94;5119644;28;20520;-73
2023/03/12 02:52:03;;;;;;;5.97;1.48;;;;;;;-0.74;100.00;100328.47;5119217;28;20122;-74
2023/03/12 02:54:34;;;;;;;4.45;1.25;;;;;;;-0.84;100.00;100337.81;5120834;29;20125;-73
2023/03/12 02:57:04;;;;;;;4.38;1.30;;;;;;;-0.91;100.00;100327.50;5120350;28;20304;-73
2023/03/12 02:59:34;;;;;;;6.38;1.35;;;;;;;-0.94;100.00;100337.72;5113252;28;20031;-73
2023/03/12 03:02:05;;;;;;;2.58;1.02;;;;;;;-0.96;100.00;100342.00;5117357;28;20023;-72
2023/03/12 03:04:36;;;;;;;2.35;1.10;;;;;;;-1.00;100.00;100340.25;5131435;28;20105;-73
2023/03/12 03:07:06;;;;;;;3.85;1.23;;;;;;;-1.03;100.00;100337.69;5121273;28;20043;-73
2023/03/12 03:09:36;;;;;;;3.28;1.40;;;;;;;-1.04;100.00;100333.41;5122113;28;20031;-73
2023/03/12 03:12:07;;;;;;;2.47;0.98;;;;;;;-0.99;100.00;100327.47;5119642;29;20604;-72
2023/03/12 03:14:37;;;;;;;4.18;1.25;;;;;;;-1.05;100.00;100336.81;5120249;28;20185;-72
2023/03/12 03:17:07;;;;;;;3.40;1.20;;;;;;;-1.00;100.00;100324.88;5118762;28;20636;-73
2023/03/12 03:19:38;;;;;;;3.15;1.02;;;;;;;-1.03;100.00;100341.09;5120973;28;20047;-72
2023/03/12 03:22:08;;;;;;;5.30;1.00;;;;;;;-1.00;100.00;100332.56;5129532;28;20256;-72
2023/03/12 03:24:38;;;;;;;5.18;1.40;;;;;;;-0.99;100.00;100336.84;5128372;28;20086;-72
2023/03/12 03:27:08;;;;;;;5.78;1.15;;;;;;;-1.01;100.00;100336.84;5130853;28;20037;-73
2023/03/12 03:29:39;;;;;;;8.73;1.00;;;;;;;-1.02;100.00;100332.56;5130935;28;20134;-72
2023/03/12 03:32:09;;;;;;;6.07;1.23;;;;;;;-0.91;100.00;100335.19;5136748;28;20492;-72
2023/03/12 03:34:40;;;;;;;8.43;1.10;;;;;;;-0.90;100.00;100334.34;5139250;28;20396;-71
2023/03/12 03:37:10;;;;;;;3.40;1.10;;;;;;;-0.86;100.00;100318.97;5121077;28;20291;-72
2023/03/12 03:39:40;;;;;;;5.68;1.08;;;;;;;-0.87;100.00;100324.09;5129309;28;20039;-71
2023/03/12 03:42:11;;;;;;;2.00;0.93;;;;;;;-0.86;100.00;100323.25;5135978;28;20409;-74
2023/03/12 03:44:41;;;;;;;6.90;0.80;;;;;;;-0.84;100.00;100329.25;5129103;28;20024;-72
2023/03/12 03:47:11;;;;;;;4.28;0.70;;;;;;;-0.80;100.00;100325.84;5126457;28;20094;-70
2023/03/12 03:49:42;;;;;;;5.88;0.98;;;;;;;-0.77;100.00;100331.00;5128733;28;20054;-73
2023/03/12 03:52:12;;;;;;;3.83;0.80;;;;;;;-0.75;99.13;100334.44;5130331;28;20026;-74
2023/03/12 03:54:42;;;;;;;2.63;0.90;;;;;;;-0.71;100.00;100337.00;5135010;28;20180;-76
2023/03/12 03:57:13;;;;;;;2.20;0.73;;;;;;;-0.72;99.54;100334.47;5128623;28;20035;-71
2023/03/12 03:59:43;;;;;;;4.25;1.30;;;;;;;-0.67;99.12;100332.75;5136173;28;20026;-75
2023/03/12 04:02:13;;;;;;;8.80;1.05;;;;;;;-0.63;98.74;100331.91;5136931;28;20041;-72
2023/03/12 04:04:44;;;;;;;3.60;0.93;;;;;;;-0.64;98.21;100340.47;5138883;28;20027;-75
2023/03/12 04:07:15;;;;;;;1.98;0.60;;;;;;;-0.64;98.11;100337.91;5128572;28;20027;-75
2023/03/12 04:09:45;;;;;;;1.30;0.80;;;;;;;-0.64;98.12;100340.47;5131378;28;20030;-72
2023/03/12 04:12:16;;;;;;;2.47;1.00;;;;;;;-0.69;97.62;100337.03;5128100;28;20030;-72
2023/03/12 04:14:46;;;;;;;1.88;0.80;;;;;;;-0.81;99.01;100334.38;5127689;28;20054;-73
2023/03/12 04:17:16;;;;;;;2.97;0.95;;;;;;;-0.85;100.00;100335.22;5128778;28;20283;-73
2023/03/12 04:19:47;;;;;;;2.63;1.00;;;;;;;-0.88;100.00;100337.78;5128631;28;20502;-72
2023/03/12 04:22:17;;;;;;;3.40;1.00;;;;;;;-1.02;100.00;100334.28;5128148;28;20031;-72
2023/03/12 04:24:47;;;;;;;2.30;0.80;;;;;;;-1.04;100.00;100338.53;5127344;28;20031;-76
2023/03/12 04:27:18;;;;;;;3.13;0.98;;;;;;;-1.07;100.00;100336.78;5127224;28;20023;-75
2023/03/12 04:29:48;;;;;;;3.63;1.10;;;;;;;-1.09;100.00;100335.09;5130871;28;20026;-72
2023/03/12 04:32:19;;;;;;;6.32;1.05;;;;;;;-1.10;100.00;100328.25;5135932;28;20034;-73
2023/03/12 04:34:49;;;;;;;2.80;1.10;;;;;;;-1.12;100.00;100330.78;5138075;28;20022;-74
2023/03/12 04:37:19;;;;;;;6.97;1.05;;;;;;;-1.10;100.00;100333.38;5128089;28;20046;-73
2023/03/12 04:39:49;;;;;;;2.10;0.80;;;;;;;-1.13;100.00;100329.06;5129224;28;20031;-72
2023/03/12 04:42:20;;;;;;;2.70;0.90;;;;;;;-1.12;100.00;100324.78;5126772;28;20027;-72
2023/03/12 04:44:51;;;;;;;3.97;0.90;;;;;;;-1.12;100.00;100325.66;5127907;28;20027;-72
2023/03/12 04:47:21;;;;;;;3.78;1.00;;;;;;;-1.13;100.00;100325.63;5129467;28;20030;-73
2023/03/12 04:49:52;;;;;;;3.63;0.90;;;;;;;-0.94;100.00;100314.66;5127099;28;20385;-72
2023/03/12 04:52:22;;;;;;;2.38;0.90;;;;;;;-1.18;100.00;100317.06;5128825;28;20118;-73
2023/03/12 04:54:53;;;;;;;2.35;0.95;;;;;;;-1.19;100.00;100325.59;5126647;28;20023;-74
2023/03/12 04:57:24;;;;;;;3.15;1.00;;;;;;;-1.25;100.00;100317.88;5129975;28;20027;-72
2023/03/12 04:59:54;;;;;;;1.75;0.90;;;;;;;-1.24;100.00;100323.00;5132231;28;20029;-72
2023/03/12 05:02:24;;;;;;;3.67;1.10;;;;;;;-1.32;100.00;100323.78;5129510;28;20108;-73
2023/03/12 05:04:56;;;;;;;2.15;0.98;;;;;;;-1.27;100.00;100322.97;5117608;28;20110;-71
2023/03/12 05:07:26;;;;;;;1.85;1.00;;;;;;;-1.32;100.00;100331.47;5134495;28;20069;-73
2023/03/12 05:09:56;;;;;;;1.73;0.90;;;;;;;-1.33;100.00;100335.75;5130562;28;20026;-72
2023/03/12 05:12:27;;;;;;;3.17;0.90;;;;;;;-1.26;100.00;100328.97;5130083;28;20121;-72
2023/03/12 05:14:57;;;;;;;2.45;0.90;;;;;;;-1.24;100.00;100332.41;5125440;28;20023;-72
2023/03/12 05:17:27;;;;;;;4.55;1.10;;;;;;;-1.14;100.00;100336.75;5107960;28;20035;-73
2023/03/12 05:19:58;;;;;;;2.10;0.85;;;;;;;-1.19;100.00;100336.72;5130389;28;20035;-74
2023/03/12 05:22:28;;;;;;;3.30;1.15;;;;;;;-1.20;100.00;100337.53;5127375;28;20890;-73
2023/03/12 05:24:58;;;;;;;2.28;1.00;;;;;;;-1.08;100.00;100339.38;5126950;28;20503;-73
2023/03/12 05:27:29;;;;;;;1.50;0.95;;;;;;;-1.09;100.00;100329.97;5126562;28;20027;-73
2023/03/12 05:29:59;;;;;;;3.00;1.00;;;;;;;-1.07;100.00;100333.38;5132494;28;20348;-73
2023/03/12 05:32:29;;;;;;;2.58;0.82;;;;;;;-1.08;100.00;100331.69;5136949;28;20539;-72
2023/03/12 05:34:59;;;;;;;4.35;1.23;;;;;;;-1.09;100.00;100335.94;5135574;28;20061;-73
2023/03/12 05:37:30;;;;;;;1.75;0.88;;;;;;;-1.04;100.00;100338.53;5126464;28;20584;-75
2023/03/12 05:40:00;;;;;;;2.83;1.13;;;;;;;-1.05;100.00;100334.25;5127920;28;20254;-73
2023/03/12 05:42:30;;;;;;;2.05;1.08;;;;;;;-1.00;100.00;100322.31;5130322;28;20061;-72
2023/03/12 05:45:01;;;;;;;3.42;0.80;;;;;;;-0.85;100.00;100319.84;5130422;28;20050;-73
2023/03/12 05:47:31;;;;;;;2.40;0.88;;;;;;;-0.65;100.00;100324.25;5129951;28;20559;-73
2023/03/12 05:50:02;;;;;;;1.88;1.00;;;;;;;-0.89;100.00;100328.38;5110830;28;20603;-73
2023/03/12 05:52:32;;;;;;;4.05;1.27;;;;;;;-0.79;100.00;100327.56;5120228;28;20102;-73
2023/03/12 05:55:03;;;;;;;2.72;1.15;;;;;;;-1.00;100.00;100330.88;5112810;28;20078;-73
2023/03/12 05:57:33;;;;;;;2.50;1.05;;;;;;;-0.91;100.00;100324.94;5131100;28;20100;-73
2023/03/12 06:00:04;;;;;;;3.55;1.00;;;;;;;-0.76;100.00;100325.03;5130917;28;20393;-73
2023/03/12 06:02:35;;;;;;;3.63;1.15;;;;;;;-0.83;100.00;100320.72;5129741;28;20125;-75
2023/03/12 06:05:06;;;;;;;4.93;1.45;;;;;;;-0.80;100.00;100324.16;5116008;28;20093;-72
2023/03/12 06:07:36;;;;;;;2.67;1.02;;;;;;;-0.75;100.00;100317.34;5124932;28;20036;-73
2023/03/12 06:10:07;;;;;;;1.95;1.08;;;;;;;-0.72;100.00;100314.78;5128203;28;20101;-73
2023/03/12 06:12:38;;;;;;;2.55;1.17;;;;;;;-0.57;100.00;100312.28;5126055;28;20027;-73
2023/03/12 06:15:09;;;;;;;2.97;1.02;;;;;;;-0.68;100.00;100310.53;5130531;28;20553;-72
2023/03/12 06:17:39;;;;;;;2.70;0.90;;;;;;;-0.28;100.00;100320.09;5126607;28;20133;-74
2023/03/12 06:20:10;;;;;;;2.80;1.20;;;;;;;-0.48;100.00;100301.22;5126536;28;20023;-73
2023/03/12 06:22:40;;;;;;;3.35;1.40;;;;;;;-0.37;100.00;100302.97;5119595;29;20061;-72
2023/03/12 06:25:10;;;;;;;3.08;1.30;;;;;;;-0.39;100.00;100301.25;5123791;28;20070;-73
2023/03/12 06:27:41;;;;;;;2.40;1.10;;;;;;;-0.29;100.00;100305.56;5121654;29;20401;-70
2023/03/12 06:30:12;;;;;;;2.38;1.15;;;;;;;-0.18;100.00;100298.75;5128893;28;20485;-74
2023/03/12 06:32:42;;;;;;;6.40;1.17;;;;;;;0.07;100.00;100297.06;5131134;28;20066;-75
2023/03/12 06:35:12;;;;;;;3.28;1.30;;;;;;;0.22;100.00;100291.13;5124256;28;20117;-73
2023/03/12 06:37:42;;;;;;;2.28;1.00;;;;;;;0.33;100.00;100302.25;5119587;29;20269;-75
2023/03/12 06:40:13;;;;;;;4.53;1.27;;;;;;;0.28;100.00;100298.81;5122418;29;20023;-73
2023/03/12 06:42:43;;;;;;;2.25;1.20;;;;;;;0.49;100.00;100302.28;5121199;28;20035;-72
2023/03/12 06:45:14;;;;;;;4.72;1.10;;;;;;;0.57;100.00;100297.97;5135011;28;20481;-72
2023/03/12 06:47:44;;;;;;;2.85;1.00;;;;;;;0.62;100.00;100291.13;5128282;28;20420;-75
2023/03/12 06:50:14;;;;;;;1.30;0.85;;;;;;;0.65;100.00;100288.56;5120852;29;20034;-72
2023/03/12 06:52:45;;;;;;;2.75;1.23;;;;;;;0.74;100.00;100287.69;5118560;28;20344;-73
2023/03/12 06:55:15;;;;;;;3.65;1.50;;;;;;;0.84;100.00;100282.53;5106327;29;20015;-73
2023/03/12 06:57:45;;;;;;;2.65;1.40;;;;;;;0.95;100.00;100279.94;5118696;29;20196;-72
2023/03/12 07:00:16;;;;;;;2.83;1.52;;;;;;;0.97;100.00;100279.09;5121107;28;20030;-74
2023/03/12 07:02:46;;;;;;;3.33;1.40;;;;;;;0.93;100.00;100272.22;5118862;28;20082;-73
2023/03/12 07:05:17;;;;;;;5.38;1.67;;;;;;;1.04;100.00;100274.78;5124925;28;20537;-72
2023/03/12 07:07:47;;;;;;;4.97;1.40;;;;;;;1.09;100.00;100273.06;5119677;28;20035;-76
2023/03/12 07:10:17;;;;;;;3.53;1.30;;;;;;;1.21;100.00;100273.03;5108342;29;20046;-73
2023/03/12 07:12:48;;;;;;;5.72;1.65;;;;;;;1.25;100.00;100267.84;5118639;29;20515;-72
2023/03/12 07:15:18;;;;;;;2.90;1.50;;;;;;;1.33;100.00;100278.97;5119954;29;20031;-74
2023/03/12 07:17:49;;;;;;;3.08;1.40;;;;;;;1.38;100.00;100287.53;5118736;29;20051;-72
2023/03/12 07:20:19;;;;;;;6.82;1.52;;;;;;;1.43;100.00;100290.09;5138664;23;20044;-72
2023/03/12 07:22:50;;;;;;;3.45;1.25;;;;;;;1.48;100.00;100283.22;5097422;29;20028;-71
2023/03/12 07:25:20;;;;;;;3.92;1.50;;;;;;;1.60;100.00;100289.16;5094017;29;20034;-71
2023/03/12 07:27:50;;;;;;;3.78;1.30;;;;;;;1.67;100.00;100287.41;5090051;29;20035;-71
2023/03/12 07:30:22;;;;;;;4.72;1.30;;;;;;;1.66;100.00;100285.69;5097489;29;20210;-71
2023/03/12 07:32:53;;;;;;;3.28;1.10;;;;;;;1.74;100.00;100287.38;5098680;29;20509;-71
2023/03/12 07:35:23;;;;;;;4.72;1.33;;;;;;;1.83;100.00;100277.03;5105120;29;20041;-70
2023/03/12 07:37:54;;;;;;;6.03;1.25;;;;;;;1.79;100.00;100270.19;5097581;29;20024;-72
2023/03/12 07:40:24;;;;;;;5.50;1.40;;;;;;;1.73;100.00;100265.06;5100615;29;20027;-72
2023/03/12 07:42:55;;;;;;;3.05;1.30;;;;;;;1.74;100.00;100266.78;5100219;29;20028;-71
2023/03/12 07:45:26;;;;;;;4.88;1.40;;;;;;;1.84;100.00;100268.44;5099918;29;20028;-71
2023/03/12 07:47:56;;;;;;;4.43;1.30;;;;;;;1.84;100.00;100265.88;5099967;29;20475;-71
2023/03/12 07:50:26;;;;;;;3.22;1.02;;;;;;;1.87;100.00;100263.28;5099934;29;20044;-71
2023/03/12 07:52:57;;;;;;;2.97;1.08;;;;;;;1.85;99.97;100263.25;5099472;29;20062;-71
2023/03/12 07:55:27;;;;;;;7.40;1.65;;;;;;;1.95;100.00;100254.63;5090646;29;20067;-71
2023/03/12 07:57:57;;;;;;;6.10;1.55;;;;;;;1.96;100.00;100260.66;5096664;29;20119;-70
2023/03/12 08:00:29;;;;;;;4.65;1.40;;;;;;;1.97;99.71;100259.78;5108623;29;20042;-70
2023/03/12 08:02:59;;;;;;;3.03;1.30;;;;;;;1.94;100.00;100257.19;5101421;29;20038;-72
2023/03/12 08:05:29;;;;;;;3.53;1.20;;;;;;;2.00;100.00;100259.75;5098231;29;20016;-71
2023/03/12 08:08:00;;;;;;;3.80;1.48;;;;;;;2.11;98.85;100260.53;5099956;29;20039;-71
2023/03/12 08:10:30;;;;;;;2.80;1.30;;;;;;;2.25;98.49;100251.84;5103450;29;20051;-71
2023/03/12 08:13:00;;;;;;;2.00;1.30;;;;;;;2.43;96.41;100258.56;5099359;29;20075;-71
2023/03/12 08:15:32;;;;;;;3.47;1.50;;;;;;;2.63;95.28;100243.78;5084462;29;20110;-71
2023/03/12 08:18:02;;;;;;;3.42;1.52;;;;;;;2.95;93.38;100246.91;5097495;29;20086;-72
2023/03/12 08:20:32;;;;;;;4.95;1.35;;;;;;;3.17;91.48;100245.81;5099787;29;20031;-72
2023/03/12 08:23:03;;;;;;;2.35;1.27;;;;;;;3.27;91.32;100244.81;5098214;29;20375;-72
2023/03/12 08:25:35;;;;;;;2.53;1.13;;;;;;;3.36;90.14;100255.06;5097073;29;20038;-71
2023/03/12 08:28:05;;;;;;;3.65;1.40;;;;;;;3.58;87.61;100253.03;5098155;29;20031;-71
2023/03/12 08:30:36;;;;;;;7.05;1.30;;;;;;;3.71;86.07;100248.56;5103553;29;20035;-71
2023/03/12 08:33:06;;;;;;;5.63;1.75;;;;;;;3.95;87.39;100241.31;5108527;29;20062;-71
2023/03/12 08:35:36;;;;;;;4.88;1.67;;;;;;;4.07;86.20;100235.09;5090973;29;20564;-72
2023/03/12 08:38:07;;;;;;;4.15;1.67;;;;;;;4.09;85.04;100231.63;5098299;29;20035;-71
2023/03/12 08:40:38;;;;;;;4.18;1.67;;;;;;;3.72;83.09;100230.47;5099489;29;20044;-72
2023/03/12 08:43:08;;;;;;;4.20;1.65;;;;;;;3.90;84.61;100225.03;5097284;28;20027;-72
2023/03/12 08:45:38;;;;;;;4.97;1.50;;;;;;;3.93;83.35;100219.81;5097473;29;20529;-71
2023/03/12 08:48:08;;;;;;;4.78;1.60;;;;;;;4.29;84.15;100202.88;5098267;29;20030;-71
2023/03/12 08:50:39;;;;;;;2.65;1.40;;;;;;;4.50;81.46;100199.94;5099022;29;20546;-72
2023/03/12 08:53:09;;;;;;;3.20;1.38;;;;;;;4.38;80.99;100198.41;5098122;29;20055;-71
2023/03/12 08:55:39;;;;;;;5.22;1.27;;;;;;;4.19;79.99;100211.66;5098506;29;20031;-71
2023/03/12 08:58:10;;;;;;;3.90;1.40;;;;;;;4.08;83.13;100201.47;5098501;29;20071;-71
2023/03/12 09:00:40;;;;;;;4.20;1.15;;;;;;;3.90;80.60;100196.59;5099036;29;20032;-70
2023/03/12 09:03:13;;;;;;;3.92;1.17;;;;;;;3.90;81.19;100198.31;5103826;29;20461;-71
2023/03/12 09:05:43;;;;;;;3.55;1.30;;;;;;;3.96;79.93;100203.41;5104951;29;20055;-73
2023/03/12 09:08:15;;;;;;;6.32;1.45;;;;;;;4.12;80.44;100202.31;5100882;29;20500;-71
2023/03/12 09:10:51;;;;;;;5.80;1.83;;;;;;;4.43;81.14;100209.53;5099310;29;20387;-71
2023/03/12 09:13:21;;;;;;;7.75;2.10;;;;;;;4.52;78.63;100206.81;5100145;29;20051;-69
2023/03/12 09:15:51;;;;;;;5.10;1.70;;;;;;;4.46;77.13;100211.22;5106362;29;20074;-72
2023/03/12 09:18:22;;;;;;;4.00;1.58;;;;;;;4.35;77.67;100216.56;5098645;29;20034;-72
2023/03/12 09:20:53;;;;;;;5.57;1.30;;;;;;;4.31;76.33;100216.63;5097724;29;20027;-72
2023/03/12 09:23:24;;;;;;;5.05;1.50;;;;;;;4.31;78.36;100212.31;5092431;29;20031;-73
2023/03/12 09:25:56;;;;;;;3.80;1.67;;;;;;;4.64;81.82;100206.56;5094842;29;20403;-72
2023/03/12 09:28:26;;;;;;;4.55;1.50;;;;;;;4.70;80.99;100203.88;5095191;29;20027;-72
2023/03/12 09:31:00;;;;;;;3.92;1.60;;;;;;;4.73;81.51;100198.66;5099149;29;20049;-72
2023/03/12 09:33:32;;;;;;;2.85;1.63;;;;;;;4.84;84.19;100193.28;5076449;29;20049;-72
2023/03/12 09:36:03;;;;;;;5.13;2.00;;;;;;;5.11;84.61;100193.59;5098214;29;20032;-72
2023/03/12 09:38:34;;;;;;;4.07;2.00;;;;;;;5.21;83.91;100189.94;5096156;29;20063;-72
2023/03/12 09:41:13;;;;;;;4.35;1.65;;;;;;;5.32;84.75;100185.38;5066257;29;20088;-71
2023/03/12 09:43:51;;;;;;;5.07;1.70;;;;;;;5.47;85.19;100190.25;5082597;29;20028;-73
2023/03/12 09:46:47;;;;;;;5.03;1.52;;;;;;;5.43;78.20;100186.84;5092386;29;20547;-72
2023/03/12 09:49:45;;;;;;;4.38;1.80;;;;;;;5.28;77.89;100193.22;5095794;29;20028;-71
2023/03/12 09:52:47;;;;;;;5.60;1.48;;;;;;;5.13;80.53;100186.63;5071682;29;20540;-72
2023/03/12 09:55:21;;;;;;;6.50;1.85;;;;;;;5.02;83.38;100188.59;5085130;29;20370;-72
2023/03/12 09:57:53;;;;;;;8.23;1.70;;;;;;;4.99;85.17;100180.88;5079585;29;20047;-72
2023/03/12 10:00:28;;;;;;;3.10;1.40;;;;;;;4.79;83.58;100179.56;5092089;29;20070;-72
2023/03/12 10:03:01;;;;;;;5.10;1.40;;;;;;;4.85;86.15;100179.44;5082933;28;20102;-72
2023/03/12 10:05:37;;;;;;;4.10;1.60;;;;;;;4.83;84.34;100176.88;5083428;29;20063;-72
2023/03/12 10:08:37;;;;;;;3.40;1.60;;;;;;;4.85;85.86;100169.09;5090462;29;20043;-71
2023/03/12 10:11:27;;;;;;;3.55;1.90;;;;;;;4.79;87.37;100159.69;5064925;29;20106;-72
2023/03/12 10:14:30;;;;;;;5.53;1.80;;;;;;;4.74;88.89;100158.94;5085635;29;20046;-73
2023/03/12 10:17:22;;;;;;;3.60;1.63;;;;;;;4.74;86.71;100156.34;5084716;29;20031;-72
2023/03/12 10:19:58;;;;;;;2.67;1.45;;;;;;;4.69;86.13;100145.25;5095009;29;20031;-73
2023/03/12 10:22:50;;;;;;;3.78;1.50;;;;;;;4.82;85.37;100136.34;5094298;29;20682;-72
2023/03/12 10:25:30;;;;;;;3.78;1.50;;;;;;;4.81;85.15;100132.03;5093190;29;20036;-73
2023/03/12 10:28:18;;;;;;;5.40;1.60;;;;;;;4.80;84.05;100130.34;5097265;28;20031;-72
2023/03/12 10:30:59;;;;;;;4.70;1.85;;;;;;;4.95;84.85;100113.69;5097909;29;20055;-70
2023/03/12 10:33:47;;;;;;;4.35;1.30;;;;;;;5.14;86.32;100117.59;5072981;29;20197;-71
2023/03/12 10:36:21;;;;;;;3.00;1.25;;;;;;;5.21;83.28;100112.25;5091222;29;20063;-71
2023/03/12 10:38:52;;;;;;;2.13;1.10;;;;;;;5.22;84.10;100115.66;5096307;29;20040;-72
2023/03/12 10:41:27;;;;;;;4.85;1.48;;;;;;;5.13;85.90;100121.06;5098945;29;20035;-72
2023/03/12 10:44:04;;;;;;;;;;;;;;;5.19;89.60;100108.81;5095469;29;20403;-72
2023/03/12 10:46:50;;;;;;;2.03;1.20;;;;;;;5.19;87.64;100108.81;5091439;29;19958;-73
2023/03/12 10:49:20;;;;;;;2.35;1.23;;;;;;;5.27;89.09;100108.63;5095184;29;20430;-72
2023/03/12 10:52:04;;;;;;;3.40;1.15;;;;;;;5.15;84.56;100120.13;5087018;29;20039;-73
2023/03/12 10:54:37;;;;;;;4.68;1.52;;;;;;;5.10;85.93;100113.31;5094062;29;20043;-72
2023/03/12 10:57:08;;;;;;;4.03;1.33;;;;;;;5.07;87.16;100114.25;5091204;29;20031;-72
2023/03/12 10:59:44;;;;;;;5.35;1.45;;;;;;;5.03;88.43;100110.03;5093623;28;20058;-72
2023/03/12 11:02:33;;;;;;;3.50;1.08;;;;;;;5.04;88.46;100098.81;5097370;29;20117;-72
2023/03/12 11:05:18;;;;;;;1.98;0.85;;;;;;;5.11;88.93;100089.16;5102010;29;20044;-73
2023/03/12 11:07:49;;;;;;;4.38;0.80;;;;;;;5.13;89.30;100069.25;5091266;29;20286;-72
2023/03/12 11:10:21;;;;;;;4.78;0.93;;;;;;;5.24;87.89;100070.72;5090638;29;20314;-72
2023/03/12 11:12:55;;;;;;;2.42;0.90;;;;;;;5.36;87.29;100062.66;5083026;29;20139;-71
2023/03/12 11:15:37;;;;;;;5.25;1.02;;;;;;;5.46;87.66;100061.56;5088304;29;20312;-72
2023/03/12 11:18:24;;;;;;;2.05;0.98;;;;;;;5.45;87.05;100054.69;5089207;29;20179;-72
2023/03/12 11:21:15;;;;;;;6.30;0.95;;;;;;;5.42;87.70;100050.41;5086189;28;20100;-73
2023/03/12 11:24:10;;;;;;;2.42;0.90;;;;;;;5.27;86.29;100068.06;5089833;29;20051;-73
2023/03/12 11:26:49;;;;;;;2.03;0.90;;;;;;;5.22;86.93;100051.78;5086131;29;20047;-73
2023/03/12 11:29:31;;;;;;;3.55;0.65;;;;;;;5.24;88.01;100060.38;5095463;29;20031;-71
2023/03/12 11:32:18;;;;;;;2.90;0.98;;;;;;;5.09;86.79;100059.84;5087533;29;20043;-71
2023/03/12 11:34:50;;;;;;;1.00;0.70;;;;;;;5.02;87.52;100046.19;5103975;29;20405;-72
2023/03/12 11:37:34;;;;;;;3.78;1.48;;;;;;;4.97;87.66;100040.25;5094639;29;20237;-72
2023/03/12 11:40:28;;;;;;;1.90;0.60;;;;;;;4.83;86.46;100036.25;5092524;28;20150;-73
2023/03/12 11:43:33;;;;;;;3.83;0.80;;;;;;;4.72;87.30;100030.44;5091100;29;20509;-72
2023/03/12 11:46:15;;;;;;;4.47;0.73;;;;;;;4.80;88.50;100034.56;5101399;29;20058;-72
2023/03/12 11:49:14;;;;;;;1.20;0.43;;;;;;;4.80;88.69;100023.38;5095149;29;20042;-73
2023/03/12 11:52:20;;;;;;;0.98;0.43;;;;;;;4.85;89.76;100029.31;5091818;28;20048;-73